sensor_id;sensor_type;location;lat;lon;timestamp;temperature;humidity
51996;DHT22;38010;53.264;6.592;2023-12-20T00:01:01;17.10;99.90
51996;DHT22;38010;53.264;6.592;2023-12-20T00:03:26;17.10;99.90
51996;DHT22;38010;53.264;6.592;2023-12-20T00:05:52;17.00;99.90
51996;DHT22;38010;53.264;6.592;2023-12-20T00:08:18;17.00;99.90
51996;DHT22;38010;53.264;6.592;2023-12-20T00:10:44;17.00;99.90
51996;DHT22;38010;53.264;6.592;2023-12-20T00:13:10;17.00;99.90
51996;DHT22;38010;53.264;6.592;2023-12-20T00:15:36;17.00;99.90
51996;DHT22;38010;53.264;6.592;2023-12-20T00:18:02;16.90;99.90
51996;DHT22;38010;53.264;6.592;2023-12-20T00:20:28;16.90;99.90
51996;DHT22;38010;53.264;6.592;2023-12-20T00:22:57;16.90;99.90
51996;DHT22;38010;53.264;6.592;2023-12-20T00:25:24;16.80;99.90
51996;DHT22;38010;53.264;6.592;2023-12-20T00:27:49;16.80;99.90
51996;DHT22;38010;53.264;6.592;2023-12-20T00:30:15;16.80;99.90
51996;DHT22;38010;53.264;6.592;2023-12-20T00:32:41;16.80;99.90
51996;DHT22;38010;53.264;6.592;2023-12-20T00:35:15;16.80;99.90
51996;DHT22;38010;53.264;6.592;2023-12-20T00:37:44;16.70;99.90
51996;DHT22;38010;53.264;6.592;2023-12-20T00:40:10;16.70;99.90
51996;DHT22;38010;53.264;6.592;2023-12-20T00:42:36;16.70;99.90
51996;DHT22;38010;53.264;6.592;2023-12-20T00:45:02;16.70;99.90
51996;DHT22;38010;53.264;6.592;2023-12-20T00:47:30;16.70;99.90
51996;DHT22;38010;53.264;6.592;2023-12-20T00:49:56;16.60;99.90
51996;DHT22;38010;53.264;6.592;2023-12-20T00:52:21;16.60;99.90
51996;DHT22;38010;53.264;6.592;2023-12-20T00:54:48;16.60;99.90
51996;DHT22;38010;53.264;6.592;2023-12-20T00:57:14;16.60;99.90
51996;DHT22;38010;53.264;6.592;2023-12-20T00:59:40;16.60;99.90
51996;DHT22;38010;53.264;6.592;2023-12-20T01:02:06;16.50;99.90
51996;DHT22;38010;53.264;6.592;2023-12-20T01:04:32;16.60;99.90
51996;DHT22;38010;53.264;6.592;2023-12-20T01:06:57;16.50;99.90
51996;DHT22;38010;53.264;6.592;2023-12-20T01:09:23;16.50;99.90
51996;DHT22;38010;53.264;6.592;2023-12-20T01:11:52;16.50;99.90
51996;DHT22;38010;53.264;6.592;2023-12-20T01:14:17;16.50;99.90
51996;DHT22;38010;53.264;6.592;2023-12-20T01:16:43;16.50;99.90
51996;DHT22;38010;53.264;6.592;2023-12-20T01:19:09;16.40;99.90
51996;DHT22;38010;53.264;6.592;2023-12-20T01:21:35;16.40;99.90
51996;DHT22;38010;53.264;6.592;2023-12-20T01:24:00;16.40;99.90
51996;DHT22;38010;53.264;6.592;2023-12-20T01:26:26;16.40;99.90
51996;DHT22;38010;53.264;6.592;2023-12-20T01:28:52;16.40;99.90
51996;DHT22;38010;53.264;6.592;2023-12-20T01:31:17;16.30;99.90
51996;DHT22;38010;53.264;6.592;2023-12-20T01:33:43;16.30;99.90
51996;DHT22;38010;53.264;6.592;2023-12-20T01:36:09;16.40;99.90
51996;DHT22;38010;53.264;6.592;2023-12-20T01:38:34;16.30;99.90
51996;DHT22;38010;53.264;6.592;2023-12-20T01:41:00;16.30;99.90
51996;DHT22;38010;53.264;6.592;2023-12-20T01:43:26;16.30;99.90
51996;DHT22;38010;53.264;6.592;2023-12-20T01:45:52;16.20;99.90
51996;DHT22;38010;53.264;6.592;2023-12-20T01:48:18;16.30;99.90
51996;DHT22;38010;53.264;6.592;2023-12-20T01:50:45;16.20;99.90
51996;DHT22;38010;53.264;6.592;2023-12-20T01:53:12;16.20;99.90
51996;DHT22;38010;53.264;6.592;2023-12-20T01:55:40;16.20;99.90
51996;DHT22;38010;53.264;6.592;2023-12-20T01:58:09;16.20;99.90
51996;DHT22;38010;53.264;6.592;2023-12-20T02:00:36;16.20;99.90
51996;DHT22;38010;53.264;6.592;2023-12-20T02:03:03;16.20;99.90
51996;DHT22;38010;53.264;6.592;2023-12-20T02:05:33;16.10;99.90
51996;DHT22;38010;53.264;6.592;2023-12-20T02:08:00;16.10;99.90
51996;DHT22;38010;53.264;6.592;2023-12-20T02:10:26;16.10;99.90
51996;DHT22;38010;53.264;6.592;2023-12-20T02:12:52;16.10;99.90
51996;DHT22;38010;53.264;6.592;2023-12-20T02:15:18;16.10;99.90
51996;DHT22;38010;53.264;6.592;2023-12-20T02:17:44;16.10;99.90
51996;DHT22;38010;53.264;6.592;2023-12-20T02:20:10;16.10;99.90
51996;DHT22;38010;53.264;6.592;2023-12-20T02:22:36;16.10;99.90
51996;DHT22;38010;53.264;6.592;2023-12-20T02:25:02;16.00;99.90
51996;DHT22;38010;53.264;6.592;2023-12-20T02:27:28;16.00;99.90
51996;DHT22;38010;53.264;6.592;2023-12-20T02:29:54;16.00;99.90
51996;DHT22;38010;53.264;6.592;2023-12-20T02:32:21;16.00;99.90
51996;DHT22;38010;53.264;6.592;2023-12-20T02:34:49;16.00;99.90
51996;DHT22;38010;53.264;6.592;2023-12-20T02:37:15;16.00;99.90
51996;DHT22;38010;53.264;6.592;2023-12-20T02:39:40;16.00;99.90
51996;DHT22;38010;53.264;6.592;2023-12-20T02:42:06;15.90;99.90
51996;DHT22;38010;53.264;6.592;2023-12-20T02:44:32;15.90;99.90
51996;DHT22;38010;53.264;6.592;2023-12-20T02:46:58;16.00;99.90
51996;DHT22;38010;53.264;6.592;2023-12-20T02:49:23;15.90;99.90
51996;DHT22;38010;53.264;6.592;2023-12-20T02:51:49;15.90;99.90
51996;DHT22;38010;53.264;6.592;2023-12-20T02:54:14;15.90;99.90
51996;DHT22;38010;53.264;6.592;2023-12-20T02:56:40;15.90;99.90
51996;DHT22;38010;53.264;6.592;2023-12-20T02:59:06;15.90;99.90
51996;DHT22;38010;53.264;6.592;2023-12-20T03:01:34;15.80;99.90
51996;DHT22;38010;53.264;6.592;2023-12-20T03:04:00;15.80;99.90
51996;DHT22;38010;53.264;6.592;2023-12-20T03:06:25;15.80;99.90
51996;DHT22;38010;53.264;6.592;2023-12-20T03:08:51;15.80;99.90
51996;DHT22;38010;53.264;6.592;2023-12-20T03:11:17;15.80;99.90
51996;DHT22;38010;53.264;6.592;2023-12-20T03:13:43;15.80;99.90
51996;DHT22;38010;53.264;6.592;2023-12-20T03:16:12;15.80;99.90
51996;DHT22;38010;53.264;6.592;2023-12-20T03:18:39;15.80;99.90
51996;DHT22;38010;53.264;6.592;2023-12-20T03:21:05;15.80;99.90
51996;DHT22;38010;53.264;6.592;2023-12-20T03:23:31;15.80;99.90
51996;DHT22;38010;53.264;6.592;2023-12-20T03:25:59;15.70;99.90
51996;DHT22;38010;53.264;6.592;2023-12-20T03:28:26;15.70;99.90
51996;DHT22;38010;53.264;6.592;2023-12-20T03:30:52;15.70;99.90
51996;DHT22;38010;53.264;6.592;2023-12-20T03:33:17;15.70;99.90
51996;DHT22;38010;53.264;6.592;2023-12-20T03:35:43;15.70;99.90
51996;DHT22;38010;53.264;6.592;2023-12-20T03:38:09;15.70;99.90
51996;DHT22;38010;53.264;6.592;2023-12-20T03:40:35;15.70;99.90
51996;DHT22;38010;53.264;6.592;2023-12-20T03:43:00;15.70;99.90
51996;DHT22;38010;53.264;6.592;2023-12-20T03:45:26;15.70;99.90
51996;DHT22;38010;53.264;6.592;2023-12-20T03:47:52;15.70;99.90
51996;DHT22;38010;53.264;6.592;2023-12-20T03:50:26;15.60;99.90
51996;DHT22;38010;53.264;6.592;2023-12-20T03:52:52;15.60;99.90
51996;DHT22;38010;53.264;6.592;2023-12-20T03:55:17;15.60;99.90
51996;DHT22;38010;53.264;6.592;2023-12-20T03:57:43;15.60;99.90
51996;DHT22;38010;53.264;6.592;2023-12-20T04:00:09;15.60;99.90
51996;DHT22;38010;53.264;6.592;2023-12-20T04:02:42;15.50;99.90
51996;DHT22;38010;53.264;6.592;2023-12-20T04:05:08;15.60;99.90
51996;DHT22;38010;53.264;6.592;2023-12-20T04:07:35;15.60;99.90
51996;DHT22;38010;53.264;6.592;2023-12-20T04:10:01;15.60;99.90
51996;DHT22;38010;53.264;6.592;2023-12-20T04:12:28;15.60;99.90
51996;DHT22;38010;53.264;6.592;2023-12-20T04:14:54;15.50;99.90
51996;DHT22;38010;53.264;6.592;2023-12-20T04:17:20;15.50;99.90
51996;DHT22;38010;53.264;6.592;2023-12-20T04:19:48;15.50;99.90
51996;DHT22;38010;53.264;6.592;2023-12-20T04:22:14;15.50;99.90
51996;DHT22;38010;53.264;6.592;2023-12-20T04:24:39;15.50;99.90
51996;DHT22;38010;53.264;6.592;2023-12-20T04:27:07;15.50;99.90
51996;DHT22;38010;53.264;6.592;2023-12-20T04:29:33;15.50;99.90
51996;DHT22;38010;53.264;6.592;2023-12-20T04:31:59;15.50;99.90
51996;DHT22;38010;53.264;6.592;2023-12-20T04:34:26;15.50;99.90
51996;DHT22;38010;53.264;6.592;2023-12-20T04:36:52;15.40;99.90
51996;DHT22;38010;53.264;6.592;2023-12-20T04:39:17;15.40;99.90
51996;DHT22;38010;53.264;6.592;2023-12-20T04:41:43;15.40;99.90
51996;DHT22;38010;53.264;6.592;2023-12-20T04:44:09;15.40;99.90
51996;DHT22;38010;53.264;6.592;2023-12-20T04:46:34;15.40;99.90
51996;DHT22;38010;53.264;6.592;2023-12-20T04:49:00;15.40;99.90
51996;DHT22;38010;53.264;6.592;2023-12-20T04:51:27;15.40;99.90
51996;DHT22;38010;53.264;6.592;2023-12-20T04:53:52;15.40;99.90
51996;DHT22;38010;53.264;6.592;2023-12-20T04:56:18;15.40;99.90
51996;DHT22;38010;53.264;6.592;2023-12-20T04:58:44;15.40;99.90
51996;DHT22;38010;53.264;6.592;2023-12-20T05:01:10;15.40;99.90
51996;DHT22;38010;53.264;6.592;2023-12-20T05:03:35;15.40;99.90
51996;DHT22;38010;53.264;6.592;2023-12-20T05:06:01;15.40;99.90
51996;DHT22;38010;53.264;6.592;2023-12-20T05:08:27;15.40;99.90
51996;DHT22;38010;53.264;6.592;2023-12-20T05:10:54;15.30;99.90
51996;DHT22;38010;53.264;6.592;2023-12-20T05:13:20;15.30;99.90
51996;DHT22;38010;53.264;6.592;2023-12-20T05:15:45;15.40;99.90
51996;DHT22;38010;53.264;6.592;2023-12-20T05:18:12;15.30;99.90
51996;DHT22;38010;53.264;6.592;2023-12-20T05:20:38;15.30;99.90
51996;DHT22;38010;53.264;6.592;2023-12-20T05:23:04;15.30;99.90
51996;DHT22;38010;53.264;6.592;2023-12-20T05:25:29;15.30;99.90
51996;DHT22;38010;53.264;6.592;2023-12-20T05:27:55;15.30;99.90
51996;DHT22;38010;53.264;6.592;2023-12-20T05:30:21;15.30;99.90
51996;DHT22;38010;53.264;6.592;2023-12-20T05:32:47;15.30;99.90
51996;DHT22;38010;53.264;6.592;2023-12-20T05:35:13;15.30;99.90
51996;DHT22;38010;53.264;6.592;2023-12-20T05:37:39;15.30;99.90
51996;DHT22;38010;53.264;6.592;2023-12-20T05:40:05;15.30;99.90
51996;DHT22;38010;53.264;6.592;2023-12-20T05:42:31;15.30;99.90
51996;DHT22;38010;53.264;6.592;2023-12-20T05:44:56;15.30;99.90
51996;DHT22;38010;53.264;6.592;2023-12-20T05:47:22;15.20;99.90
51996;DHT22;38010;53.264;6.592;2023-12-20T05:49:48;15.20;99.90
51996;DHT22;38010;53.264;6.592;2023-12-20T05:52:13;15.20;99.90
51996;DHT22;38010;53.264;6.592;2023-12-20T05:54:40;15.20;99.90
51996;DHT22;38010;53.264;6.592;2023-12-20T05:57:05;15.20;99.90
51996;DHT22;38010;53.264;6.592;2023-12-20T05:59:31;15.20;99.90
51996;DHT22;38010;53.264;6.592;2023-12-20T06:01:57;15.20;99.90
51996;DHT22;38010;53.264;6.592;2023-12-20T06:04:22;15.20;99.90
51996;DHT22;38010;53.264;6.592;2023-12-20T06:06:48;15.20;99.90
51996;DHT22;38010;53.264;6.592;2023-12-20T06:09:14;15.20;99.90
51996;DHT22;38010;53.264;6.592;2023-12-20T06:11:40;15.20;99.90
51996;DHT22;38010;53.264;6.592;2023-12-20T06:14:06;15.10;99.90
51996;DHT22;38010;53.264;6.592;2023-12-20T06:16:32;15.20;99.90
51996;DHT22;38010;53.264;6.592;2023-12-20T06:18:57;15.10;99.90
51996;DHT22;38010;53.264;6.592;2023-12-20T06:21:23;15.10;99.90
51996;DHT22;38010;53.264;6.592;2023-12-20T06:23:49;15.10;99.90
51996;DHT22;38010;53.264;6.592;2023-12-20T06:26:14;15.10;99.90
51996;DHT22;38010;53.264;6.592;2023-12-20T06:28:40;15.10;99.90
51996;DHT22;38010;53.264;6.592;2023-12-20T06:31:06;15.10;99.90
51996;DHT22;38010;53.264;6.592;2023-12-20T06:33:31;15.10;99.90
51996;DHT22;38010;53.264;6.592;2023-12-20T06:35:57;15.10;99.90
51996;DHT22;38010;53.264;6.592;2023-12-20T06:38:23;15.10;99.90
51996;DHT22;38010;53.264;6.592;2023-12-20T06:40:48;15.10;99.90
51996;DHT22;38010;53.264;6.592;2023-12-20T06:43:14;15.10;99.90
51996;DHT22;38010;53.264;6.592;2023-12-20T06:45:40;15.10;99.90
51996;DHT22;38010;53.264;6.592;2023-12-20T06:48:06;15.10;99.90
51996;DHT22;38010;53.264;6.592;2023-12-20T06:50:32;15.10;99.90
51996;DHT22;38010;53.264;6.592;2023-12-20T06:52:58;15.10;99.90
51996;DHT22;38010;53.264;6.592;2023-12-20T06:55:23;15.10;99.90
51996;DHT22;38010;53.264;6.592;2023-12-20T06:57:49;15.00;99.90
51996;DHT22;38010;53.264;6.592;2023-12-20T07:00:15;14.90;99.90
51996;DHT22;38010;53.264;6.592;2023-12-20T07:02:41;15.00;99.90
51996;DHT22;38010;53.264;6.592;2023-12-20T07:05:07;14.90;99.90
51996;DHT22;38010;53.264;6.592;2023-12-20T07:07:33;15.00;99.90
51996;DHT22;38010;53.264;6.592;2023-12-20T07:09:59;14.90;99.90
51996;DHT22;38010;53.264;6.592;2023-12-20T07:12:24;15.00;99.90
51996;DHT22;38010;53.264;6.592;2023-12-20T07:14:50;15.00;99.90
51996;DHT22;38010;53.264;6.592;2023-12-20T07:17:16;14.90;99.90
51996;DHT22;38010;53.264;6.592;2023-12-20T07:19:42;14.80;99.90
51996;DHT22;38010;53.264;6.592;2023-12-20T07:22:08;14.70;99.90
51996;DHT22;38010;53.264;6.592;2023-12-20T07:24:34;14.60;99.90
51996;DHT22;38010;53.264;6.592;2023-12-20T07:27:00;14.50;99.90
51996;DHT22;38010;53.264;6.592;2023-12-20T07:29:26;14.50;99.90
51996;DHT22;38010;53.264;6.592;2023-12-20T07:31:55;14.40;99.90
51996;DHT22;38010;53.264;6.592;2023-12-20T07:34:20;14.30;99.90
51996;DHT22;38010;53.264;6.592;2023-12-20T07:36:46;14.30;99.90
51996;DHT22;38010;53.264;6.592;2023-12-20T07:39:14;14.30;99.90
51996;DHT22;38010;53.264;6.592;2023-12-20T07:41:40;14.20;99.90
51996;DHT22;38010;53.264;6.592;2023-12-20T07:44:06;14.20;99.90
51996;DHT22;38010;53.264;6.592;2023-12-20T07:46:32;14.20;99.90
51996;DHT22;38010;53.264;6.592;2023-12-20T07:48:58;14.20;99.90
51996;DHT22;38010;53.264;6.592;2023-12-20T07:51:23;14.20;99.90
51996;DHT22;38010;53.264;6.592;2023-12-20T07:53:49;14.10;99.90
51996;DHT22;38010;53.264;6.592;2023-12-20T07:56:19;14.10;99.90
51996;DHT22;38010;53.264;6.592;2023-12-20T07:58:45;14.20;99.90
51996;DHT22;38010;53.264;6.592;2023-12-20T08:01:12;14.20;99.90
51996;DHT22;38010;53.264;6.592;2023-12-20T08:03:38;14.20;99.90
51996;DHT22;38010;53.264;6.592;2023-12-20T08:06:04;14.10;99.90
51996;DHT22;38010;53.264;6.592;2023-12-20T08:08:30;14.10;99.90
51996;DHT22;38010;53.264;6.592;2023-12-20T08:10:55;14.20;99.90
51996;DHT22;38010;53.264;6.592;2023-12-20T08:13:23;14.10;99.90
51996;DHT22;38010;53.264;6.592;2023-12-20T08:15:52;14.10;99.90
51996;DHT22;38010;53.264;6.592;2023-12-20T08:18:18;14.10;99.90
51996;DHT22;38010;53.264;6.592;2023-12-20T08:20:43;14.10;99.90
51996;DHT22;38010;53.264;6.592;2023-12-20T08:23:09;14.10;99.90
51996;DHT22;38010;53.264;6.592;2023-12-20T08:25:35;14.10;99.90
51996;DHT22;38010;53.264;6.592;2023-12-20T08:28:02;14.10;99.90
51996;DHT22;38010;53.264;6.592;2023-12-20T08:30:28;14.10;99.90
51996;DHT22;38010;53.264;6.592;2023-12-20T08:32:55;14.10;99.90
51996;DHT22;38010;53.264;6.592;2023-12-20T08:35:21;14.10;99.90
51996;DHT22;38010;53.264;6.592;2023-12-20T08:37:47;14.10;99.90
51996;DHT22;38010;53.264;6.592;2023-12-20T08:40:12;14.20;99.90
51996;DHT22;38010;53.264;6.592;2023-12-20T08:42:39;14.20;99.90
51996;DHT22;38010;53.264;6.592;2023-12-20T08:45:05;14.20;99.90
51996;DHT22;38010;53.264;6.592;2023-12-20T08:47:30;14.20;99.90
51996;DHT22;38010;53.264;6.592;2023-12-20T08:49:56;14.20;99.90
51996;DHT22;38010;53.264;6.592;2023-12-20T08:52:24;14.30;99.90
51996;DHT22;38010;53.264;6.592;2023-12-20T08:54:53;14.30;99.90
51996;DHT22;38010;53.264;6.592;2023-12-20T08:57:22;14.30;99.90
51996;DHT22;38010;53.264;6.592;2023-12-20T08:59:49;14.30;99.90
51996;DHT22;38010;53.264;6.592;2023-12-20T09:02:16;14.30;99.90
51996;DHT22;38010;53.264;6.592;2023-12-20T09:04:42;14.30;99.90
51996;DHT22;38010;53.264;6.592;2023-12-20T09:07:24;14.30;99.90
51996;DHT22;38010;53.264;6.592;2023-12-20T09:09:50;14.30;99.90
51996;DHT22;38010;53.264;6.592;2023-12-20T09:12:18;14.40;99.90
51996;DHT22;38010;53.264;6.592;2023-12-20T09:14:48;14.40;99.90
51996;DHT22;38010;53.264;6.592;2023-12-20T09:17:15;14.40;99.90
51996;DHT22;38010;53.264;6.592;2023-12-20T09:19:42;14.40;99.90
51996;DHT22;38010;53.264;6.592;2023-12-20T09:22:09;14.40;99.90
51996;DHT22;38010;53.264;6.592;2023-12-20T09:24:35;14.30;99.90
51996;DHT22;38010;53.264;6.592;2023-12-20T09:27:01;14.30;99.90
51996;DHT22;38010;53.264;6.592;2023-12-20T09:29:27;14.30;99.90
51996;DHT22;38010;53.264;6.592;2023-12-20T09:31:52;14.30;99.90
51996;DHT22;38010;53.264;6.592;2023-12-20T09:34:18;14.20;99.90
51996;DHT22;38010;53.264;6.592;2023-12-20T09:36:44;14.20;99.90
51996;DHT22;38010;53.264;6.592;2023-12-20T09:39:17;14.20;99.90
51996;DHT22;38010;53.264;6.592;2023-12-20T09:42:01;14.20;99.90
51996;DHT22;38010;53.264;6.592;2023-12-20T09:44:27;14.20;99.90
51996;DHT22;38010;53.264;6.592;2023-12-20T09:46:55;14.20;99.90
51996;DHT22;38010;53.264;6.592;2023-12-20T09:49:21;14.20;99.90
51996;DHT22;38010;53.264;6.592;2023-12-20T09:51:47;14.20;99.90
51996;DHT22;38010;53.264;6.592;2023-12-20T09:54:21;14.20;99.90
51996;DHT22;38010;53.264;6.592;2023-12-20T09:56:47;14.20;99.90
51996;DHT22;38010;53.264;6.592;2023-12-20T09:59:13;14.20;99.90
51996;DHT22;38010;53.264;6.592;2023-12-20T10:01:42;14.10;99.90
51996;DHT22;38010;53.264;6.592;2023-12-20T10:04:10;14.10;99.90
51996;DHT22;38010;53.264;6.592;2023-12-20T10:06:44;14.20;99.90
51996;DHT22;38010;53.264;6.592;2023-12-20T10:09:10;14.10;99.90
51996;DHT22;38010;53.264;6.592;2023-12-20T10:11:37;14.10;99.90
51996;DHT22;38010;53.264;6.592;2023-12-20T10:14:04;14.10;99.90
51996;DHT22;38010;53.264;6.592;2023-12-20T10:16:30;14.10;99.90
51996;DHT22;38010;53.264;6.592;2023-12-20T10:18:56;14.10;99.90
51996;DHT22;38010;53.264;6.592;2023-12-20T10:21:23;14.10;99.90
51996;DHT22;38010;53.264;6.592;2023-12-20T10:23:49;14.10;99.90
51996;DHT22;38010;53.264;6.592;2023-12-20T10:26:21;14.10;99.90
51996;DHT22;38010;53.264;6.592;2023-12-20T10:28:51;14.10;99.90
51996;DHT22;38010;53.264;6.592;2023-12-20T10:31:31;14.20;99.90
51996;DHT22;38010;53.264;6.592;2023-12-20T10:33:58;14.20;99.90
51996;DHT22;38010;53.264;6.592;2023-12-20T10:36:29;14.20;99.90
51996;DHT22;38010;53.264;6.592;2023-12-20T10:38:56;14.20;99.90
51996;DHT22;38010;53.264;6.592;2023-12-20T10:41:26;14.20;99.90
51996;DHT22;38010;53.264;6.592;2023-12-20T10:44:03;14.10;99.90
51996;DHT22;38010;53.264;6.592;2023-12-20T10:46:30;14.20;99.90
51996;DHT22;38010;53.264;6.592;2023-12-20T10:48:58;14.10;99.90
51996;DHT22;38010;53.264;6.592;2023-12-20T10:51:25;14.20;99.90
51996;DHT22;38010;53.264;6.592;2023-12-20T10:53:53;14.10;99.90
51996;DHT22;38010;53.264;6.592;2023-12-20T10:56:19;14.10;99.90
51996;DHT22;38010;53.264;6.592;2023-12-20T10:58:46;14.10;99.90
51996;DHT22;38010;53.264;6.592;2023-12-20T11:01:13;14.10;99.90
51996;DHT22;38010;53.264;6.592;2023-12-20T11:03:52;14.10;99.90
51996;DHT22;38010;53.264;6.592;2023-12-20T11:12:02;14.10;99.90
51996;DHT22;38010;53.264;6.592;2023-12-20T11:17:10;14.00;99.90
51996;DHT22;38010;53.264;6.592;2023-12-20T11:20:04;14.00;99.90
51996;DHT22;38010;53.264;6.592;2023-12-20T11:22:31;14.00;99.90
51996;DHT22;38010;53.264;6.592;2023-12-20T11:25:10;14.00;99.90
51996;DHT22;38010;53.264;6.592;2023-12-20T11:27:37;14.00;99.90
51996;DHT22;38010;53.264;6.592;2023-12-20T11:30:06;14.10;99.90
51996;DHT22;38010;53.264;6.592;2023-12-20T11:32:34;14.00;99.90
51996;DHT22;38010;53.264;6.592;2023-12-20T11:37:40;14.00;99.90
51996;DHT22;38010;53.264;6.592;2023-12-20T11:40:12;14.00;99.90
51996;DHT22;38010;53.264;6.592;2023-12-20T11:42:44;14.00;99.90
51996;DHT22;38010;53.264;6.592;2023-12-20T11:45:15;14.00;99.90
51996;DHT22;38010;53.264;6.592;2023-12-20T11:47:46;13.90;99.90
51996;DHT22;38010;53.264;6.592;2023-12-20T11:50:12;14.00;99.90
51996;DHT22;38010;53.264;6.592;2023-12-20T11:52:37;13.90;99.90
51996;DHT22;38010;53.264;6.592;2023-12-20T11:55:03;14.00;99.90
51996;DHT22;38010;53.264;6.592;2023-12-20T11:57:30;13.90;99.90
51996;DHT22;38010;53.264;6.592;2023-12-20T11:59:56;13.90;99.90
51996;DHT22;38010;53.264;6.592;2023-12-20T12:02:22;13.90;99.90
51996;DHT22;38010;53.264;6.592;2023-12-20T12:04:49;13.90;99.90
51996;DHT22;38010;53.264;6.592;2023-12-20T12:07:18;13.90;99.90
51996;DHT22;38010;53.264;6.592;2023-12-20T12:09:45;13.90;99.90
51996;DHT22;38010;53.264;6.592;2023-12-20T12:12:12;14.00;99.90
51996;DHT22;38010;53.264;6.592;2023-12-20T12:14:38;14.00;99.90
51996;DHT22;38010;53.264;6.592;2023-12-20T12:17:13;14.00;99.90
51996;DHT22;38010;53.264;6.592;2023-12-20T12:19:42;14.00;99.90
51996;DHT22;38010;53.264;6.592;2023-12-20T12:24:43;14.00;99.90
51996;DHT22;38010;53.264;6.592;2023-12-20T12:27:10;14.00;99.90
51996;DHT22;38010;53.264;6.592;2023-12-20T12:29:36;14.10;99.90
51996;DHT22;38010;53.264;6.592;2023-12-20T12:32:09;14.10;99.90
51996;DHT22;38010;53.264;6.592;2023-12-20T12:34:35;14.10;99.90
51996;DHT22;38010;53.264;6.592;2023-12-20T12:37:03;14.20;99.90
51996;DHT22;38010;53.264;6.592;2023-12-20T12:39:29;14.20;99.90
51996;DHT22;38010;53.264;6.592;2023-12-20T12:41:56;14.20;99.90
51996;DHT22;38010;53.264;6.592;2023-12-20T12:44:22;14.20;99.90
51996;DHT22;38010;53.264;6.592;2023-12-20T12:46:50;14.30;99.90
51996;DHT22;38010;53.264;6.592;2023-12-20T12:49:17;14.30;99.90
51996;DHT22;38010;53.264;6.592;2023-12-20T12:51:43;14.30;99.90
51996;DHT22;38010;53.264;6.592;2023-12-20T12:54:09;14.30;99.90
51996;DHT22;38010;53.264;6.592;2023-12-20T12:56:36;14.40;99.90
51996;DHT22;38010;53.264;6.592;2023-12-20T12:59:02;14.40;99.90
51996;DHT22;38010;53.264;6.592;2023-12-20T13:01:27;14.40;99.90
51996;DHT22;38010;53.264;6.592;2023-12-20T13:03:53;14.50;99.90
51996;DHT22;38010;53.264;6.592;2023-12-20T13:06:19;14.60;99.90
51996;DHT22;38010;53.264;6.592;2023-12-20T13:08:45;14.60;99.90
51996;DHT22;38010;53.264;6.592;2023-12-20T13:11:11;14.70;99.90
51996;DHT22;38010;53.264;6.592;2023-12-20T13:13:37;14.70;99.90
51996;DHT22;38010;53.264;6.592;2023-12-20T13:16:03;14.70;99.90
51996;DHT22;38010;53.264;6.592;2023-12-20T13:18:28;14.80;99.90
51996;DHT22;38010;53.264;6.592;2023-12-20T13:20:54;14.80;99.90
51996;DHT22;38010;53.264;6.592;2023-12-20T13:23:20;14.90;99.90
51996;DHT22;38010;53.264;6.592;2023-12-20T13:25:46;14.90;99.90
51996;DHT22;38010;53.264;6.592;2023-12-20T13:28:12;14.80;99.90
51996;DHT22;38010;53.264;6.592;2023-12-20T13:30:38;14.80;99.90
51996;DHT22;38010;53.264;6.592;2023-12-20T13:33:05;14.90;99.90
51996;DHT22;38010;53.264;6.592;2023-12-20T13:35:31;14.90;99.90
51996;DHT22;38010;53.264;6.592;2023-12-20T13:38:00;14.90;99.90
51996;DHT22;38010;53.264;6.592;2023-12-20T13:40:26;14.90;99.90
51996;DHT22;38010;53.264;6.592;2023-12-20T13:42:54;14.90;99.90
51996;DHT22;38010;53.264;6.592;2023-12-20T13:45:20;14.90;99.90
51996;DHT22;38010;53.264;6.592;2023-12-20T13:47:46;14.90;99.90
51996;DHT22;38010;53.264;6.592;2023-12-20T13:50:11;15.00;99.90
51996;DHT22;38010;53.264;6.592;2023-12-20T13:52:38;15.00;99.90
51996;DHT22;38010;53.264;6.592;2023-12-20T13:55:04;15.10;99.90
51996;DHT22;38010;53.264;6.592;2023-12-20T13:57:31;15.10;99.90
51996;DHT22;38010;53.264;6.592;2023-12-20T13:59:57;15.10;99.90
51996;DHT22;38010;53.264;6.592;2023-12-20T14:02:23;15.10;99.90
51996;DHT22;38010;53.264;6.592;2023-12-20T14:04:49;15.20;99.90
51996;DHT22;38010;53.264;6.592;2023-12-20T14:07:14;15.30;99.90
51996;DHT22;38010;53.264;6.592;2023-12-20T14:09:41;15.30;99.90
51996;DHT22;38010;53.264;6.592;2023-12-20T14:12:14;15.30;99.90
51996;DHT22;38010;53.264;6.592;2023-12-20T14:14:40;15.30;99.90
51996;DHT22;38010;53.264;6.592;2023-12-20T14:17:06;15.30;99.90
51996;DHT22;38010;53.264;6.592;2023-12-20T14:19:32;15.30;99.90
51996;DHT22;38010;53.264;6.592;2023-12-20T14:21:58;15.30;99.90
51996;DHT22;38010;53.264;6.592;2023-12-20T14:24:27;15.30;99.90
51996;DHT22;38010;53.264;6.592;2023-12-20T14:26:53;15.60;99.90
51996;DHT22;38010;53.264;6.592;2023-12-20T14:29:18;15.90;99.90
51996;DHT22;38010;53.264;6.592;2023-12-20T14:31:44;16.20;99.90
51996;DHT22;38010;53.264;6.592;2023-12-20T14:34:10;16.50;99.90
51996;DHT22;38010;53.264;6.592;2023-12-20T14:36:36;16.80;99.90
51996;DHT22;38010;53.264;6.592;2023-12-20T14:39:03;17.00;99.90
51996;DHT22;38010;53.264;6.592;2023-12-20T14:41:30;17.30;99.90
51996;DHT22;38010;53.264;6.592;2023-12-20T14:43:56;17.50;99.90
51996;DHT22;38010;53.264;6.592;2023-12-20T14:46:21;17.60;99.90
51996;DHT22;38010;53.264;6.592;2023-12-20T14:48:47;17.60;99.90
51996;DHT22;38010;53.264;6.592;2023-12-20T14:51:14;17.50;99.90
51996;DHT22;38010;53.264;6.592;2023-12-20T14:53:39;17.40;99.90
51996;DHT22;38010;53.264;6.592;2023-12-20T14:56:05;17.30;99.90
51996;DHT22;38010;53.264;6.592;2023-12-20T14:58:31;17.10;99.90
51996;DHT22;38010;53.264;6.592;2023-12-20T15:00:57;17.00;99.90
51996;DHT22;38010;53.264;6.592;2023-12-20T15:03:23;16.90;99.90
51996;DHT22;38010;53.264;6.592;2023-12-20T15:05:49;16.70;99.90
51996;DHT22;38010;53.264;6.592;2023-12-20T15:08:15;16.60;99.90
51996;DHT22;38010;53.264;6.592;2023-12-20T15:10:41;16.50;99.90
51996;DHT22;38010;53.264;6.592;2023-12-20T15:13:07;16.40;99.90
51996;DHT22;38010;53.264;6.592;2023-12-20T15:15:32;16.30;99.90
51996;DHT22;38010;53.264;6.592;2023-12-20T15:18:01;16.20;99.90
51996;DHT22;38010;53.264;6.592;2023-12-20T15:20:30;16.20;99.90
51996;DHT22;38010;53.264;6.592;2023-12-20T15:22:58;16.10;99.90
51996;DHT22;38010;53.264;6.592;2023-12-20T15:25:30;16.00;99.90
51996;DHT22;38010;53.264;6.592;2023-12-20T15:27:56;16.00;99.90
51996;DHT22;38010;53.264;6.592;2023-12-20T15:30:22;15.90;99.90
51996;DHT22;38010;53.264;6.592;2023-12-20T15:32:49;15.90;99.90
51996;DHT22;38010;53.264;6.592;2023-12-20T15:35:15;15.80;99.90
51996;DHT22;38010;53.264;6.592;2023-12-20T15:37:41;15.80;99.90
51996;DHT22;38010;53.264;6.592;2023-12-20T15:40:11;15.70;99.90